sensor_id;sensor_type;location;lat;lon;timestamp;P1;durP1;ratioP1;P2;durP2;ratioP2
12892;SDS011;6514;48.606;9.222;2022-11-15T00:02:14;3.70;;;3.00;;
12892;SDS011;6514;48.606;9.222;2022-11-15T00:04:42;3.33;;;2.80;;
12892;SDS011;6514;48.606;9.222;2022-11-15T00:07:09;5.10;;;2.80;;
12892;SDS011;6514;48.606;9.222;2022-11-15T00:09:36;3.63;;;2.90;;
12892;SDS011;6514;48.606;9.222;2022-11-15T00:12:03;4.77;;;2.90;;
12892;SDS011;6514;48.606;9.222;2022-11-15T00:14:30;3.10;;;2.80;;
12892;SDS011;6514;48.606;9.222;2022-11-15T00:16:57;3.40;;;2.87;;
12892;SDS011;6514;48.606;9.222;2022-11-15T00:19:24;4.47;;;3.00;;
12892;SDS011;6514;48.606;9.222;2022-11-15T00:21:52;2.60;;;2.40;;
12892;SDS011;6514;48.606;9.222;2022-11-15T00:24:19;3.67;;;2.73;;
12892;SDS011;6514;48.606;9.222;2022-11-15T00:26:45;4.93;;;2.70;;
12892;SDS011;6514;48.606;9.222;2022-11-15T00:29:12;2.93;;;2.63;;
12892;SDS011;6514;48.606;9.222;2022-11-15T00:31:39;3.47;;;2.23;;
12892;SDS011;6514;48.606;9.222;2022-11-15T00:34:06;3.03;;;2.53;;
12892;SDS011;6514;48.606;9.222;2022-11-15T00:36:33;2.90;;;2.53;;
12892;SDS011;6514;48.606;9.222;2022-11-15T00:39:02;3.10;;;2.40;;
12892;SDS011;6514;48.606;9.222;2022-11-15T00:41:29;4.80;;;2.30;;
12892;SDS011;6514;48.606;9.222;2022-11-15T00:43:56;3.37;;;2.40;;
12892;SDS011;6514;48.606;9.222;2022-11-15T00:46:23;2.77;;;2.57;;
12892;SDS011;6514;48.606;9.222;2022-11-15T00:48:50;3.37;;;2.40;;
12892;SDS011;6514;48.606;9.222;2022-11-15T00:51:17;4.10;;;2.50;;
12892;SDS011;6514;48.606;9.222;2022-11-15T00:53:44;4.77;;;2.27;;
12892;SDS011;6514;48.606;9.222;2022-11-15T00:56:12;3.07;;;1.97;;
12892;SDS011;6514;48.606;9.222;2022-11-15T00:58:39;3.60;;;2.73;;
12892;SDS011;6514;48.606;9.222;2022-11-15T01:01:06;3.23;;;2.37;;
12892;SDS011;6514;48.606;9.222;2022-11-15T01:03:34;2.90;;;2.60;;
12892;SDS011;6514;48.606;9.222;2022-11-15T01:06:02;5.07;;;2.20;;
12892;SDS011;6514;48.606;9.222;2022-11-15T01:08:29;2.87;;;2.47;;
12892;SDS011;6514;48.606;9.222;2022-11-15T01:10:59;2.73;;;2.00;;
12892;SDS011;6514;48.606;9.222;2022-11-15T01:13:30;3.37;;;2.43;;
12892;SDS011;6514;48.606;9.222;2022-11-15T01:15:57;3.90;;;2.60;;
12892;SDS011;6514;48.606;9.222;2022-11-15T01:18:25;2.90;;;2.53;;
12892;SDS011;6514;48.606;9.222;2022-11-15T01:20:52;3.10;;;2.50;;
12892;SDS011;6514;48.606;9.222;2022-11-15T01:23:19;2.40;;;2.20;;
12892;SDS011;6514;48.606;9.222;2022-11-15T01:25:45;2.57;;;2.37;;
12892;SDS011;6514;48.606;9.222;2022-11-15T01:28:12;4.90;;;2.90;;
12892;SDS011;6514;48.606;9.222;2022-11-15T01:30:41;3.90;;;2.90;;
12892;SDS011;6514;48.606;9.222;2022-11-15T01:33:07;2.97;;;2.60;;
12892;SDS011;6514;48.606;9.222;2022-11-15T01:35:37;4.60;;;2.90;;
12892;SDS011;6514;48.606;9.222;2022-11-15T01:38:05;4.50;;;3.00;;
12892;SDS011;6514;48.606;9.222;2022-11-15T01:40:33;4.10;;;3.30;;
12892;SDS011;6514;48.606;9.222;2022-11-15T01:45:47;4.57;;;3.10;;
12892;SDS011;6514;48.606;9.222;2022-11-15T01:48:18;4.33;;;3.23;;
12892;SDS011;6514;48.606;9.222;2022-11-15T01:50:46;3.90;;;3.03;;
12892;SDS011;6514;48.606;9.222;2022-11-15T01:53:13;2.70;;;2.50;;
12892;SDS011;6514;48.606;9.222;2022-11-15T01:55:40;3.27;;;2.80;;
12892;SDS011;6514;48.606;9.222;2022-11-15T01:58:07;2.90;;;2.70;;
12892;SDS011;6514;48.606;9.222;2022-11-15T02:00:34;5.57;;;3.13;;
12892;SDS011;6514;48.606;9.222;2022-11-15T02:03:03;3.63;;;2.70;;
12892;SDS011;6514;48.606;9.222;2022-11-15T02:05:30;3.67;;;2.90;;
12892;SDS011;6514;48.606;9.222;2022-11-15T02:07:57;4.43;;;3.33;;
12892;SDS011;6514;48.606;9.222;2022-11-15T02:10:27;3.97;;;3.57;;
12892;SDS011;6514;48.606;9.222;2022-11-15T02:12:54;4.40;;;3.60;;
12892;SDS011;6514;48.606;9.222;2022-11-15T02:15:24;5.57;;;3.70;;
12892;SDS011;6514;48.606;9.222;2022-11-15T02:18:05;4.33;;;3.60;;
12892;SDS011;6514;48.606;9.222;2022-11-15T02:20:42;3.63;;;3.27;;
12892;SDS011;6514;48.606;9.222;2022-11-15T02:26:32;4.57;;;3.37;;
12892;SDS011;6514;48.606;9.222;2022-11-15T02:29:20;6.43;;;4.07;;
12892;SDS011;6514;48.606;9.222;2022-11-15T02:31:59;4.73;;;3.33;;
12892;SDS011;6514;48.606;9.222;2022-11-15T02:34:32;4.27;;;3.57;;
12892;SDS011;6514;48.606;9.222;2022-11-15T02:37:11;4.60;;;4.10;;
12892;SDS011;6514;48.606;9.222;2022-11-15T02:39:44;7.27;;;4.07;;
12892;SDS011;6514;48.606;9.222;2022-11-15T02:42:19;4.30;;;3.40;;
12892;SDS011;6514;48.606;9.222;2022-11-15T02:45:09;4.13;;;3.73;;
12892;SDS011;6514;48.606;9.222;2022-11-15T02:47:43;4.50;;;4.10;;
12892;SDS011;6514;48.606;9.222;2022-11-15T02:50:12;4.80;;;3.97;;
12892;SDS011;6514;48.606;9.222;2022-11-15T02:52:44;6.20;;;4.20;;
12892;SDS011;6514;48.606;9.222;2022-11-15T02:55:28;5.67;;;4.27;;
12892;SDS011;6514;48.606;9.222;2022-11-15T02:58:00;4.47;;;3.97;;
12892;SDS011;6514;48.606;9.222;2022-11-15T03:00:48;5.50;;;4.17;;
12892;SDS011;6514;48.606;9.222;2022-11-15T03:03:36;5.23;;;4.50;;
12892;SDS011;6514;48.606;9.222;2022-11-15T03:06:19;6.03;;;5.00;;
12892;SDS011;6514;48.606;9.222;2022-11-15T03:08:57;5.07;;;4.30;;
12892;SDS011;6514;48.606;9.222;2022-11-15T03:11:31;5.43;;;3.93;;
12892;SDS011;6514;48.606;9.222;2022-11-15T03:14:02;5.40;;;4.73;;
12892;SDS011;6514;48.606;9.222;2022-11-15T03:16:37;4.90;;;4.40;;
12892;SDS011;6514;48.606;9.222;2022-11-15T03:19:12;4.50;;;3.70;;
12892;SDS011;6514;48.606;9.222;2022-11-15T03:21:42;3.87;;;3.57;;
12892;SDS011;6514;48.606;9.222;2022-11-15T03:24:11;3.77;;;3.40;;
12892;SDS011;6514;48.606;9.222;2022-11-15T03:26:40;6.27;;;3.70;;
12892;SDS011;6514;48.606;9.222;2022-11-15T03:29:10;4.53;;;3.17;;
12892;SDS011;6514;48.606;9.222;2022-11-15T03:31:41;4.73;;;3.70;;
12892;SDS011;6514;48.606;9.222;2022-11-15T03:34:18;3.53;;;3.23;;
12892;SDS011;6514;48.606;9.222;2022-11-15T03:36:48;4.23;;;3.70;;
12892;SDS011;6514;48.606;9.222;2022-11-15T03:39:17;4.97;;;3.83;;
12892;SDS011;6514;48.606;9.222;2022-11-15T03:41:46;3.73;;;3.33;;
12892;SDS011;6514;48.606;9.222;2022-11-15T03:44:20;4.50;;;3.90;;
12892;SDS011;6514;48.606;9.222;2022-11-15T03:46:57;4.87;;;4.03;;
12892;SDS011;6514;48.606;9.222;2022-11-15T03:49:30;4.20;;;3.30;;
12892;SDS011;6514;48.606;9.222;2022-11-15T03:52:00;4.73;;;3.60;;
12892;SDS011;6514;48.606;9.222;2022-11-15T03:54:29;4.23;;;2.80;;
12892;SDS011;6514;48.606;9.222;2022-11-15T03:56:56;5.33;;;3.37;;
12892;SDS011;6514;48.606;9.222;2022-11-15T03:59:23;3.57;;;3.27;;
12892;SDS011;6514;48.606;9.222;2022-11-15T04:01:50;4.00;;;3.10;;
12892;SDS011;6514;48.606;9.222;2022-11-15T04:04:17;3.77;;;3.33;;
12892;SDS011;6514;48.606;9.222;2022-11-15T04:06:45;5.03;;;2.90;;
12892;SDS011;6514;48.606;9.222;2022-11-15T04:09:12;4.73;;;2.90;;
12892;SDS011;6514;48.606;9.222;2022-11-15T04:11:39;3.13;;;2.80;;
12892;SDS011;6514;48.606;9.222;2022-11-15T04:14:06;3.87;;;2.77;;
12892;SDS011;6514;48.606;9.222;2022-11-15T04:16:32;3.53;;;2.87;;
12892;SDS011;6514;48.606;9.222;2022-11-15T04:18:59;3.57;;;3.27;;
12892;SDS011;6514;48.606;9.222;2022-11-15T04:21:43;3.07;;;2.60;;
12892;SDS011;6514;48.606;9.222;2022-11-15T04:24:29;3.47;;;2.93;;
12892;SDS011;6514;48.606;9.222;2022-11-15T04:26:56;4.63;;;3.07;;
12892;SDS011;6514;48.606;9.222;2022-11-15T04:29:23;3.03;;;2.60;;
12892;SDS011;6514;48.606;9.222;2022-11-15T04:32:01;3.53;;;3.20;;
12892;SDS011;6514;48.606;9.222;2022-11-15T04:34:29;4.87;;;3.20;;
12892;SDS011;6514;48.606;9.222;2022-11-15T04:36:57;3.00;;;2.63;;
12892;SDS011;6514;48.606;9.222;2022-11-15T04:39:41;4.07;;;3.27;;
12892;SDS011;6514;48.606;9.222;2022-11-15T04:42:08;5.77;;;4.63;;
12892;SDS011;6514;48.606;9.222;2022-11-15T04:44:36;8.30;;;6.73;;
12892;SDS011;6514;48.606;9.222;2022-11-15T04:47:02;6.53;;;4.80;;
12892;SDS011;6514;48.606;9.222;2022-11-15T04:49:30;4.33;;;3.37;;
12892;SDS011;6514;48.606;9.222;2022-11-15T04:51:59;3.97;;;3.53;;
12892;SDS011;6514;48.606;9.222;2022-11-15T04:54:26;3.97;;;3.50;;
12892;SDS011;6514;48.606;9.222;2022-11-15T04:56:53;3.70;;;3.40;;
12892;SDS011;6514;48.606;9.222;2022-11-15T04:59:19;4.67;;;3.53;;
12892;SDS011;6514;48.606;9.222;2022-11-15T05:01:46;4.53;;;4.13;;
12892;SDS011;6514;48.606;9.222;2022-11-15T05:04:13;4.10;;;3.40;;
12892;SDS011;6514;48.606;9.222;2022-11-15T05:06:45;6.17;;;4.70;;
12892;SDS011;6514;48.606;9.222;2022-11-15T05:09:17;5.60;;;4.23;;
12892;SDS011;6514;48.606;9.222;2022-11-15T05:11:46;4.77;;;3.80;;
12892;SDS011;6514;48.606;9.222;2022-11-15T05:14:13;5.53;;;4.03;;
12892;SDS011;6514;48.606;9.222;2022-11-15T05:16:40;4.73;;;3.57;;
12892;SDS011;6514;48.606;9.222;2022-11-15T05:19:07;3.97;;;3.67;;
12892;SDS011;6514;48.606;9.222;2022-11-15T05:21:34;4.63;;;3.90;;
12892;SDS011;6514;48.606;9.222;2022-11-15T05:24:01;4.10;;;3.70;;
12892;SDS011;6514;48.606;9.222;2022-11-15T05:26:30;4.83;;;4.07;;
12892;SDS011;6514;48.606;9.222;2022-11-15T05:28:58;4.77;;;4.23;;
12892;SDS011;6514;48.606;9.222;2022-11-15T05:31:25;5.30;;;4.80;;
12892;SDS011;6514;48.606;9.222;2022-11-15T05:33:53;6.13;;;5.17;;
12892;SDS011;6514;48.606;9.222;2022-11-15T05:36:22;5.97;;;5.37;;
12892;SDS011;6514;48.606;9.222;2022-11-15T05:38:55;5.60;;;4.50;;
12892;SDS011;6514;48.606;9.222;2022-11-15T05:41:25;4.77;;;4.27;;
12892;SDS011;6514;48.606;9.222;2022-11-15T05:43:58;5.33;;;4.47;;
12892;SDS011;6514;48.606;9.222;2022-11-15T05:46:27;8.37;;;5.33;;
12892;SDS011;6514;48.606;9.222;2022-11-15T05:48:55;6.50;;;4.90;;
12892;SDS011;6514;48.606;9.222;2022-11-15T05:51:23;5.77;;;4.43;;
12892;SDS011;6514;48.606;9.222;2022-11-15T05:53:53;4.87;;;4.27;;
12892;SDS011;6514;48.606;9.222;2022-11-15T05:56:24;4.87;;;4.40;;
12892;SDS011;6514;48.606;9.222;2022-11-15T05:58:52;5.03;;;3.93;;
12892;SDS011;6514;48.606;9.222;2022-11-15T06:01:22;7.23;;;4.27;;
12892;SDS011;6514;48.606;9.222;2022-11-15T06:03:50;5.13;;;4.40;;
12892;SDS011;6514;48.606;9.222;2022-11-15T06:06:17;6.77;;;5.00;;
12892;SDS011;6514;48.606;9.222;2022-11-15T06:08:44;6.83;;;5.03;;
12892;SDS011;6514;48.606;9.222;2022-11-15T06:11:13;4.93;;;4.53;;
12892;SDS011;6514;48.606;9.222;2022-11-15T06:13:40;5.90;;;4.50;;
12892;SDS011;6514;48.606;9.222;2022-11-15T06:16:07;5.53;;;4.73;;
12892;SDS011;6514;48.606;9.222;2022-11-15T06:18:35;5.47;;;4.03;;
12892;SDS011;6514;48.606;9.222;2022-11-15T06:21:03;4.90;;;4.50;;
12892;SDS011;6514;48.606;9.222;2022-11-15T06:23:31;5.17;;;4.67;;
12892;SDS011;6514;48.606;9.222;2022-11-15T06:25:59;5.17;;;4.67;;
12892;SDS011;6514;48.606;9.222;2022-11-15T06:28:28;8.50;;;4.87;;
12892;SDS011;6514;48.606;9.222;2022-11-15T06:30:55;5.60;;;4.87;;
12892;SDS011;6514;48.606;9.222;2022-11-15T06:33:22;6.47;;;4.67;;
12892;SDS011;6514;48.606;9.222;2022-11-15T06:35:50;5.47;;;4.23;;
12892;SDS011;6514;48.606;9.222;2022-11-15T06:38:17;6.73;;;5.23;;
12892;SDS011;6514;48.606;9.222;2022-11-15T06:40:44;6.87;;;5.70;;
12892;SDS011;6514;48.606;9.222;2022-11-15T06:43:11;7.07;;;5.87;;
12892;SDS011;6514;48.606;9.222;2022-11-15T06:45:39;5.73;;;5.13;;
12892;SDS011;6514;48.606;9.222;2022-11-15T06:48:06;5.43;;;4.93;;
12892;SDS011;6514;48.606;9.222;2022-11-15T06:50:33;6.27;;;5.07;;
12892;SDS011;6514;48.606;9.222;2022-11-15T06:53:02;5.03;;;4.53;;
12892;SDS011;6514;48.606;9.222;2022-11-15T06:55:29;5.60;;;4.30;;
12892;SDS011;6514;48.606;9.222;2022-11-15T06:57:56;5.57;;;4.30;;
12892;SDS011;6514;48.606;9.222;2022-11-15T07:00:23;6.03;;;3.80;;
12892;SDS011;6514;48.606;9.222;2022-11-15T07:02:50;4.07;;;3.67;;
12892;SDS011;6514;48.606;9.222;2022-11-15T07:05:17;4.10;;;3.70;;
12892;SDS011;6514;48.606;9.222;2022-11-15T07:07:50;4.30;;;3.60;;
12892;SDS011;6514;48.606;9.222;2022-11-15T07:10:19;4.27;;;3.50;;
12892;SDS011;6514;48.606;9.222;2022-11-15T07:12:46;3.67;;;3.10;;
12892;SDS011;6514;48.606;9.222;2022-11-15T07:15:14;4.47;;;3.00;;
12892;SDS011;6514;48.606;9.222;2022-11-15T07:17:41;4.43;;;3.23;;
12892;SDS011;6514;48.606;9.222;2022-11-15T07:20:08;3.37;;;3.07;;
12892;SDS011;6514;48.606;9.222;2022-11-15T07:22:35;2.50;;;2.30;;
12892;SDS011;6514;48.606;9.222;2022-11-15T07:25:02;4.70;;;2.93;;
12892;SDS011;6514;48.606;9.222;2022-11-15T07:27:34;2.70;;;2.50;;
12892;SDS011;6514;48.606;9.222;2022-11-15T07:30:01;4.47;;;2.57;;
12892;SDS011;6514;48.606;9.222;2022-11-15T07:32:28;3.10;;;2.80;;
12892;SDS011;6514;48.606;9.222;2022-11-15T07:34:55;3.80;;;2.60;;
12892;SDS011;6514;48.606;9.222;2022-11-15T07:37:22;3.13;;;2.63;;
12892;SDS011;6514;48.606;9.222;2022-11-15T07:39:49;5.93;;;3.70;;
12892;SDS011;6514;48.606;9.222;2022-11-15T07:42:15;5.57;;;3.77;;
12892;SDS011;6514;48.606;9.222;2022-11-15T07:45:01;4.10;;;3.37;;
12892;SDS011;6514;48.606;9.222;2022-11-15T07:47:29;5.27;;;3.43;;
12892;SDS011;6514;48.606;9.222;2022-11-15T07:49:55;4.40;;;3.53;;
12892;SDS011;6514;48.606;9.222;2022-11-15T07:52:22;3.30;;;3.00;;
12892;SDS011;6514;48.606;9.222;2022-11-15T07:54:49;3.70;;;2.80;;
12892;SDS011;6514;48.606;9.222;2022-11-15T07:57:16;4.40;;;2.40;;
12892;SDS011;6514;48.606;9.222;2022-11-15T07:59:43;4.27;;;2.77;;
12892;SDS011;6514;48.606;9.222;2022-11-15T08:02:11;3.00;;;2.43;;
12892;SDS011;6514;48.606;9.222;2022-11-15T08:04:38;6.10;;;2.70;;
12892;SDS011;6514;48.606;9.222;2022-11-15T08:07:05;2.83;;;2.50;;
12892;SDS011;6514;48.606;9.222;2022-11-15T08:09:32;3.30;;;2.70;;
12892;SDS011;6514;48.606;9.222;2022-11-15T08:11:59;3.80;;;2.60;;
12892;SDS011;6514;48.606;9.222;2022-11-15T08:14:26;4.17;;;2.97;;
12892;SDS011;6514;48.606;9.222;2022-11-15T08:16:54;3.13;;;2.83;;
12892;SDS011;6514;48.606;9.222;2022-11-15T08:19:22;4.57;;;2.90;;
12892;SDS011;6514;48.606;9.222;2022-11-15T08:21:49;3.43;;;3.13;;
12892;SDS011;6514;48.606;9.222;2022-11-15T08:24:16;5.93;;;4.70;;
12892;SDS011;6514;48.606;9.222;2022-11-15T08:26:43;5.30;;;4.80;;
12892;SDS011;6514;48.606;9.222;2022-11-15T08:29:10;5.40;;;4.90;;
12892;SDS011;6514;48.606;9.222;2022-11-15T08:31:37;5.10;;;4.33;;
12892;SDS011;6514;48.606;9.222;2022-11-15T08:34:05;4.17;;;3.33;;
12892;SDS011;6514;48.606;9.222;2022-11-15T08:36:33;4.73;;;3.03;;
12892;SDS011;6514;48.606;9.222;2022-11-15T08:39:00;5.20;;;3.40;;
12892;SDS011;6514;48.606;9.222;2022-11-15T08:41:28;4.23;;;3.77;;
12892;SDS011;6514;48.606;9.222;2022-11-15T08:43:57;4.67;;;4.17;;
12892;SDS011;6514;48.606;9.222;2022-11-15T08:46:24;5.07;;;3.47;;
12892;SDS011;6514;48.606;9.222;2022-11-15T08:48:51;4.17;;;3.33;;
12892;SDS011;6514;48.606;9.222;2022-11-15T08:51:18;3.73;;;2.90;;
12892;SDS011;6514;48.606;9.222;2022-11-15T08:53:46;4.13;;;3.40;;
12892;SDS011;6514;48.606;9.222;2022-11-15T08:56:14;5.00;;;4.20;;
12892;SDS011;6514;48.606;9.222;2022-11-15T08:58:41;5.07;;;4.10;;
12892;SDS011;6514;48.606;9.222;2022-11-15T09:01:14;5.67;;;4.50;;
12892;SDS011;6514;48.606;9.222;2022-11-15T09:03:42;5.87;;;3.60;;
12892;SDS011;6514;48.606;9.222;2022-11-15T09:06:09;4.33;;;3.80;;
12892;SDS011;6514;48.606;9.222;2022-11-15T09:08:36;3.53;;;3.07;;
12892;SDS011;6514;48.606;9.222;2022-11-15T09:11:05;3.43;;;3.13;;
12892;SDS011;6514;48.606;9.222;2022-11-15T09:13:33;4.30;;;3.57;;
12892;SDS011;6514;48.606;9.222;2022-11-15T09:16:02;3.97;;;3.43;;
12892;SDS011;6514;48.606;9.222;2022-11-15T09:18:30;5.87;;;3.60;;
12892;SDS011;6514;48.606;9.222;2022-11-15T09:20:58;4.07;;;3.67;;
12892;SDS011;6514;48.606;9.222;2022-11-15T09:23:25;4.00;;;3.40;;
12892;SDS011;6514;48.606;9.222;2022-11-15T09:25:57;4.27;;;3.33;;
12892;SDS011;6514;48.606;9.222;2022-11-15T09:28:26;3.93;;;3.30;;
12892;SDS011;6514;48.606;9.222;2022-11-15T09:30:55;4.47;;;3.43;;
12892;SDS011;6514;48.606;9.222;2022-11-15T09:33:23;4.30;;;3.20;;
12892;SDS011;6514;48.606;9.222;2022-11-15T09:35:50;4.00;;;3.37;;
12892;SDS011;6514;48.606;9.222;2022-11-15T09:38:17;5.03;;;2.93;;
12892;SDS011;6514;48.606;9.222;2022-11-15T09:40:44;3.40;;;3.10;;
12892;SDS011;6514;48.606;9.222;2022-11-15T09:43:24;5.20;;;3.07;;
12892;SDS011;6514;48.606;9.222;2022-11-15T09:46:01;4.97;;;3.30;;
12892;SDS011;6514;48.606;9.222;2022-11-15T09:48:46;4.37;;;3.20;;
12892;SDS011;6514;48.606;9.222;2022-11-15T09:51:19;3.30;;;3.00;;
12892;SDS011;6514;48.606;9.222;2022-11-15T09:53:55;5.73;;;3.67;;
12892;SDS011;6514;48.606;9.222;2022-11-15T09:56:25;5.80;;;4.60;;
12892;SDS011;6514;48.606;9.222;2022-11-15T09:58:59;5.67;;;4.70;;
12892;SDS011;6514;48.606;9.222;2022-11-15T10:01:36;6.67;;;3.67;;
12892;SDS011;6514;48.606;9.222;2022-11-15T10:04:11;4.90;;;4.20;;
12892;SDS011;6514;48.606;9.222;2022-11-15T10:06:42;3.77;;;2.90;;
12892;SDS011;6514;48.606;9.222;2022-11-15T10:09:13;3.40;;;2.90;;
12892;SDS011;6514;48.606;9.222;2022-11-15T10:11:43;5.80;;;3.70;;
12892;SDS011;6514;48.606;9.222;2022-11-15T10:14:12;3.43;;;3.13;;
12892;SDS011;6514;48.606;9.222;2022-11-15T10:16:52;3.63;;;2.97;;
12892;SDS011;6514;48.606;9.222;2022-11-15T10:19:38;4.20;;;3.50;;
12892;SDS011;6514;48.606;9.222;2022-11-15T10:22:16;5.20;;;4.30;;
12892;SDS011;6514;48.606;9.222;2022-11-15T10:24:49;5.00;;;4.20;;
12892;SDS011;6514;48.606;9.222;2022-11-15T10:27:24;5.43;;;4.43;;
12892;SDS011;6514;48.606;9.222;2022-11-15T10:29:52;3.90;;;3.50;;
12892;SDS011;6514;48.606;9.222;2022-11-15T10:32:20;8.27;;;3.93;;
12892;SDS011;6514;48.606;9.222;2022-11-15T10:34:47;5.03;;;3.77;;
12892;SDS011;6514;48.606;9.222;2022-11-15T10:37:18;4.87;;;4.10;;
12892;SDS011;6514;48.606;9.222;2022-11-15T10:40:05;4.93;;;3.73;;
12892;SDS011;6514;48.606;9.222;2022-11-15T10:42:33;4.87;;;3.90;;
12892;SDS011;6514;48.606;9.222;2022-11-15T10:45:01;6.50;;;4.63;;
12892;SDS011;6514;48.606;9.222;2022-11-15T10:47:29;5.60;;;4.60;;
12892;SDS011;6514;48.606;9.222;2022-11-15T10:49:58;4.90;;;4.10;;
12892;SDS011;6514;48.606;9.222;2022-11-15T10:52:26;8.23;;;4.30;;
12892;SDS011;6514;48.606;9.222;2022-11-15T10:54:56;7.33;;;4.47;;
12892;SDS011;6514;48.606;9.222;2022-11-15T10:57:28;6.03;;;5.00;;
12892;SDS011;6514;48.606;9.222;2022-11-15T10:59:57;6.60;;;5.17;;
12892;SDS011;6514;48.606;9.222;2022-11-15T11:02:29;6.37;;;4.77;;
12892;SDS011;6514;48.606;9.222;2022-11-15T11:04:58;5.73;;;4.47;;
12892;SDS011;6514;48.606;9.222;2022-11-15T11:07:26;3.80;;;3.40;;
12892;SDS011;6514;48.606;9.222;2022-11-15T11:09:57;4.37;;;3.97;;
12892;SDS011;6514;48.606;9.222;2022-11-15T11:12:27;4.33;;;3.77;;
12892;SDS011;6514;48.606;9.222;2022-11-15T11:14:57;5.07;;;3.50;;
12892;SDS011;6514;48.606;9.222;2022-11-15T11:17:28;4.03;;;3.13;;
12892;SDS011;6514;48.606;9.222;2022-11-15T11:20:07;4.93;;;3.87;;
12892;SDS011;6514;48.606;9.222;2022-11-15T11:22:39;4.03;;;3.67;;
12892;SDS011;6514;48.606;9.222;2022-11-15T11:25:18;4.73;;;3.47;;
12892;SDS011;6514;48.606;9.222;2022-11-15T11:27:55;3.60;;;3.30;;
12892;SDS011;6514;48.606;9.222;2022-11-15T11:30:33;8.13;;;3.90;;
12892;SDS011;6514;48.606;9.222;2022-11-15T11:33:12;7.40;;;3.70;;
12892;SDS011;6514;48.606;9.222;2022-11-15T11:35:50;3.53;;;3.17;;
12892;SDS011;6514;48.606;9.222;2022-11-15T11:38:34;5.43;;;3.60;;
12892;SDS011;6514;48.606;9.222;2022-11-15T11:41:19;7.03;;;4.13;;
12892;SDS011;6514;48.606;9.222;2022-11-15T11:44:18;10.10;;;7.10;;
12892;SDS011;6514;48.606;9.222;2022-11-15T11:46:55;8.77;;;6.27;;
12892;SDS011;6514;48.606;9.222;2022-11-15T11:49:27;8.70;;;6.00;;
12892;SDS011;6514;48.606;9.222;2022-11-15T11:52:00;6.57;;;5.97;;
12892;SDS011;6514;48.606;9.222;2022-11-15T11:54:33;5.23;;;4.73;;
12892;SDS011;6514;48.606;9.222;2022-11-15T11:57:09;6.47;;;4.90;;
12892;SDS011;6514;48.606;9.222;2022-11-15T11:59:42;15.40;;;8.07;;
12892;SDS011;6514;48.606;9.222;2022-11-15T12:02:15;8.93;;;6.10;;
12892;SDS011;6514;48.606;9.222;2022-11-15T12:04:49;6.17;;;4.77;;
12892;SDS011;6514;48.606;9.222;2022-11-15T12:07:20;6.73;;;4.87;;
12892;SDS011;6514;48.606;9.222;2022-11-15T12:09:52;7.03;;;5.00;;
12892;SDS011;6514;48.606;9.222;2022-11-15T12:12:25;6.80;;;5.70;;
12892;SDS011;6514;48.606;9.222;2022-11-15T12:14:59;6.17;;;5.20;;
12892;SDS011;6514;48.606;9.222;2022-11-15T12:17:29;6.17;;;4.97;;
12892;SDS011;6514;48.606;9.222;2022-11-15T12:19:59;7.03;;;4.83;;
12892;SDS011;6514;48.606;9.222;2022-11-15T12:22:33;9.03;;;6.13;;
12892;SDS011;6514;48.606;9.222;2022-11-15T12:25:05;10.33;;;7.17;;
12892;SDS011;6514;48.606;9.222;2022-11-15T12:27:40;9.20;;;5.40;;
12892;SDS011;6514;48.606;9.222;2022-11-15T12:30:11;6.97;;;4.47;;
12892;SDS011;6514;48.606;9.222;2022-11-15T12:32:48;6.80;;;4.70;;
12892;SDS011;6514;48.606;9.222;2022-11-15T12:35:30;5.87;;;4.20;;
12892;SDS011;6514;48.606;9.222;2022-11-15T12:38:00;5.70;;;3.80;;
12892;SDS011;6514;48.606;9.222;2022-11-15T12:40:28;4.80;;;3.50;;
12892;SDS011;6514;48.606;9.222;2022-11-15T12:43:05;4.47;;;3.60;;
12892;SDS011;6514;48.606;9.222;2022-11-15T12:45:50;6.73;;;3.53;;
12892;SDS011;6514;48.606;9.222;2022-11-15T12:51:18;3.80;;;3.40;;
12892;SDS011;6514;48.606;9.222;2022-11-15T12:53:47;9.53;;;4.17;;
12892;SDS011;6514;48.606;9.222;2022-11-15T12:56:18;6.07;;;4.40;;
12892;SDS011;6514;48.606;9.222;2022-11-15T12:58:52;5.63;;;4.63;;
12892;SDS011;6514;48.606;9.222;2022-11-15T13:04:24;7.63;;;4.40;;
12892;SDS011;6514;48.606;9.222;2022-11-15T13:06:55;5.97;;;4.50;;
12892;SDS011;6514;48.606;9.222;2022-11-15T13:15:35;7.27;;;4.30;;
12892;SDS011;6514;48.606;9.222;2022-11-15T13:18:29;5.83;;;4.13;;
12892;SDS011;6514;48.606;9.222;2022-11-15T13:21:01;4.00;;;3.60;;
12892;SDS011;6514;48.606;9.222;2022-11-15T13:23:54;5.67;;;3.90;;
12892;SDS011;6514;48.606;9.222;2022-11-15T13:26:21;6.87;;;4.60;;
12892;SDS011;6514;48.606;9.222;2022-11-15T13:28:49;8.70;;;4.77;;
12892;SDS011;6514;48.606;9.222;2022-11-15T13:31:23;5.50;;;4.30;;
12892;SDS011;6514;48.606;9.222;2022-11-15T13:33:53;5.10;;;3.87;;
12892;SDS011;6514;48.606;9.222;2022-11-15T13:36:23;6.77;;;3.47;;
12892;SDS011;6514;48.606;9.222;2022-11-15T13:38:58;4.03;;;3.10;;
12892;SDS011;6514;48.606;9.222;2022-11-15T13:41:27;5.20;;;3.63;;
12892;SDS011;6514;48.606;9.222;2022-11-15T13:43:55;4.30;;;3.37;;
12892;SDS011;6514;48.606;9.222;2022-11-15T13:46:23;7.90;;;4.17;;
12892;SDS011;6514;48.606;9.222;2022-11-15T13:48:53;5.20;;;3.47;;
12892;SDS011;6514;48.606;9.222;2022-11-15T13:51:25;6.53;;;3.97;;
12892;SDS011;6514;48.606;9.222;2022-11-15T13:54:00;4.87;;;4.00;;
12892;SDS011;6514;48.606;9.222;2022-11-15T13:56:32;4.30;;;3.70;;
12892;SDS011;6514;48.606;9.222;2022-11-15T13:59:00;4.70;;;4.23;;
12892;SDS011;6514;48.606;9.222;2022-11-15T14:01:34;5.90;;;4.03;;
12892;SDS011;6514;48.606;9.222;2022-11-15T14:04:01;5.93;;;4.20;;
12892;SDS011;6514;48.606;9.222;2022-11-15T14:06:29;4.50;;;3.90;;
12892;SDS011;6514;48.606;9.222;2022-11-15T14:09:00;7.57;;;6.07;;
12892;SDS011;6514;48.606;9.222;2022-11-15T14:11:49;11.57;;;8.87;;
12892;SDS011;6514;48.606;9.222;2022-11-15T14:14:17;11.13;;;8.50;;
12892;SDS011;6514;48.606;9.222;2022-11-15T14:16:48;14.97;;;9.30;;
12892;SDS011;6514;48.606;9.222;2022-11-15T14:19:36;10.03;;;8.07;;
12892;SDS011;6514;48.606;9.222;2022-11-15T14:22:08;9.77;;;8.47;;
12892;SDS011;6514;48.606;9.222;2022-11-15T14:24:47;11.50;;;8.00;;
12892;SDS011;6514;48.606;9.222;2022-11-15T14:27:30;8.67;;;5.93;;
12892;SDS011;6514;48.606;9.222;2022-11-15T14:29:57;7.37;;;5.07;;
12892;SDS011;6514;48.606;9.222;2022-11-15T14:32:26;7.67;;;5.90;;
12892;SDS011;6514;48.606;9.222;2022-11-15T14:34:55;6.83;;;5.20;;
12892;SDS011;6514;48.606;9.222;2022-11-15T14:37:24;6.33;;;4.87;;
12892;SDS011;6514;48.606;9.222;2022-11-15T14:39:54;7.10;;;5.00;;
12892;SDS011;6514;48.606;9.222;2022-11-15T14:42:21;7.53;;;5.20;;
12892;SDS011;6514;48.606;9.222;2022-11-15T14:44:49;5.97;;;4.50;;
12892;SDS011;6514;48.606;9.222;2022-11-15T14:47:16;8.90;;;6.00;;
12892;SDS011;6514;48.606;9.222;2022-11-15T14:49:43;7.33;;;5.77;;
12892;SDS011;6514;48.606;9.222;2022-11-15T14:52:16;8.60;;;5.90;;
12892;SDS011;6514;48.606;9.222;2022-11-15T14:54:50;6.80;;;6.10;;
12892;SDS011;6514;48.606;9.222;2022-11-15T14:57:18;10.07;;;8.60;;
12892;SDS011;6514;48.606;9.222;2022-11-15T14:59:45;12.03;;;8.97;;
12892;SDS011;6514;48.606;9.222;2022-11-15T15:02:14;14.20;;;10.47;;
12892;SDS011;6514;48.606;9.222;2022-11-15T15:04:44;15.87;;;11.70;;
12892;SDS011;6514;48.606;9.222;2022-11-15T15:07:20;12.03;;;9.80;;
12892;SDS011;6514;48.606;9.222;2022-11-15T15:09:47;13.20;;;10.83;;
12892;SDS011;6514;48.606;9.222;2022-11-15T15:12:15;11.83;;;9.47;;
12892;SDS011;6514;48.606;9.222;2022-11-15T15:14:45;12.97;;;8.27;;
12892;SDS011;6514;48.606;9.222;2022-11-15T15:17:13;12.10;;;9.10;;
12892;SDS011;6514;48.606;9.222;2022-11-15T15:19:40;14.03;;;8.10;;
12892;SDS011;6514;48.606;9.222;2022-11-15T15:22:09;12.53;;;11.23;;
12892;SDS011;6514;48.606;9.222;2022-11-15T15:24:40;12.60;;;9.17;;
12892;SDS011;6514;48.606;9.222;2022-11-15T15:27:07;11.40;;;8.77;;
12892;SDS011;6514;48.606;9.222;2022-11-15T15:29:34;14.10;;;10.70;;
12892;SDS011;6514;48.606;9.222;2022-11-15T15:32:03;12.73;;;10.40;;
12892;SDS011;6514;48.606;9.222;2022-11-15T15:34:30;9.83;;;7.87;;
12892;SDS011;6514;48.606;9.222;2022-11-15T15:37:17;9.17;;;7.13;;
12892;SDS011;6514;48.606;9.222;2022-11-15T15:39:49;8.97;;;7.60;;